Time;durP1;ratioP1;P1;durP2;ratioP2;P2;SDS_P1;SDS_P2;PMS_P1;PMS_P2;Temp;Humidity;BMP_temperature;BMP_pressure;BME280_temperature;BME280_humidity;BME280_pressure;Samples;Min_cycle;Max_cycle;Signal;HPM_P1;HPM_P2
2021/08/14 00:00:22;;;;;;;7.60;7.00;;;;;;;23.70;74.26;96976.31;5073871;28;20171;-70
2021/08/14 00:02:48;;;;;;;8.30;7.40;;;;;;;23.61;74.16;96978.84;5073583;28;20636;-66
2021/08/14 00:05:13;;;;;;;8.53;7.83;;;;;;;23.61;74.12;96975.38;5073709;28;20187;-67
2021/08/14 00:07:39;;;;;;;7.93;7.23;;;;;;;23.60;74.21;96976.47;5073573;28;20221;-66
2021/08/14 00:10:05;;;;;;;7.70;7.00;;;;;;;23.54;74.38;96977.63;5073622;28;20202;-66
2021/08/14 00:12:37;;;;;;;9.17;7.93;;;;;;;23.48;74.71;96984.16;5056714;28;20182;-66
2021/08/14 00:15:03;;;;;;;8.40;7.73;;;;;;;23.45;74.91;96985.53;5082121;28;20428;-66
2021/08/14 00:17:29;;;;;;;8.97;8.10;;;;;;;23.34;75.06;96981.41;5073706;28;20484;-70
2021/08/14 00:19:54;;;;;;;8.57;7.60;;;;;;;23.36;75.55;96981.91;5080788;28;20940;-70
2021/08/14 00:22:19;;;;;;;10.23;7.67;;;;;;;23.31;75.35;96982.00;5093721;28;20253;-66
2021/08/14 00:24:45;;;;;;;7.90;7.20;;;;;;;23.26;75.72;96974.78;5093127;28;20225;-66
2021/08/14 00:27:10;;;;;;;7.97;7.27;;;;;;;23.13;76.22;96988.13;5076274;28;20244;-65
2021/08/14 00:29:37;;;;;;;9.00;8.20;;;;;;;23.12;76.47;96984.66;5073272;28;20735;-66
2021/08/14 00:32:04;;;;;;;7.90;7.20;;;;;;;23.05;77.15;96983.41;5073427;28;20496;-65
2021/08/14 00:34:29;;;;;;;9.10;7.70;;;;;;;23.02;77.47;96981.31;5072778;28;20953;-66
2021/08/14 00:36:54;;;;;;;10.20;8.90;;;;;;;23.00;77.76;96978.13;5073623;28;20397;-65
2021/08/14 00:39:20;;;;;;;8.27;7.60;;;;;;;23.00;77.55;96978.94;5073331;28;20232;-65
2021/08/14 00:41:45;;;;;;;7.87;7.17;;;;;;;22.90;77.91;96972.91;5058208;28;20188;-65
2021/08/14 00:44:11;;;;;;;9.13;8.33;;;;;;;22.95;77.85;96970.16;5051600;28;20321;-66
2021/08/14 00:46:37;;;;;;;10.30;8.07;;;;;;;22.92;77.46;96965.38;5056313;28;20234;-68
2021/08/14 00:49:03;;;;;;;8.73;7.70;;;;;;;22.88;76.96;96964.34;5073192;28;20449;-69
2021/08/14 00:51:29;;;;;;;10.90;8.50;;;;;;;22.81;77.08;96961.25;5073481;28;20174;-70
2021/08/14 00:53:54;;;;;;;10.73;9.10;;;;;;;22.70;77.15;96951.75;5071610;28;20171;-70
2021/08/14 00:56:21;;;;;;;9.10;8.30;;;;;;;22.78;77.06;96959.13;5072572;28;20186;-71
2021/08/14 00:58:54;;;;;;;10.07;8.50;;;;;;;22.82;76.49;96960.94;5073349;28;20182;-65
2021/08/14 01:01:26;;;;;;;10.30;9.20;;;;;;;22.87;76.21;96952.03;5073363;28;20405;-66
2021/08/14 01:03:53;;;;;;;11.23;8.00;;;;;;;22.83;76.39;96951.81;5072828;28;20412;-70
2021/08/14 01:06:19;;;;;;;8.90;7.90;;;;;;;22.74;76.38;96953.53;5073349;28;20393;-70
2021/08/14 01:08:47;;;;;;;11.57;8.40;;;;;;;22.61;76.67;96946.19;5073282;28;20408;-70
2021/08/14 01:11:13;;;;;;;9.60;8.70;;;;;;;22.70;76.37;96941.78;5059848;28;20801;-65
2021/08/14 01:13:39;;;;;;;9.60;8.70;;;;;;;22.83;76.23;96945.66;5056890;28;20406;-66
2021/08/14 01:16:05;;;;;;;9.57;7.93;;;;;;;22.91;76.14;96943.13;5057215;28;20317;-66
2021/08/14 01:18:31;;;;;;;9.10;7.77;;;;;;;22.84;76.51;96947.25;5057186;28;20539;-66
2021/08/14 01:20:56;;;;;;;8.07;7.00;;;;;;;22.64;76.72;96937.59;5056991;28;20501;-66
2021/08/14 01:23:22;;;;;;;8.10;7.47;;;;;;;22.74;76.78;96939.34;5056614;28;20172;-70
2021/08/14 01:26:06;;;;;;;8.50;7.77;;;;;;;22.69;76.86;96934.03;5059445;28;20256;-70
2021/08/14 01:28:33;;;;;;;8.90;8.20;;;;;;;22.79;76.86;96942.75;5056877;28;20195;-66
2021/08/14 01:31:00;;;;;;;8.93;8.23;;;;;;;22.80;77.06;96938.19;5057302;28;20409;-65
2021/08/14 01:33:26;;;;;;;8.47;7.67;;;;;;;22.87;76.51;96938.63;5056518;28;20406;-70
2021/08/14 01:35:52;;;;;;;9.50;8.37;;;;;;;22.85;76.51;96943.47;5057737;28;20442;-65
2021/08/14 01:38:18;;;;;;;8.63;7.60;;;;;;;22.79;76.76;96934.69;5056960;28;20500;-65
2021/08/14 01:40:43;;;;;;;8.20;7.43;;;;;;;22.84;76.74;96936.53;5056846;28;20805;-70
2021/08/14 01:43:09;;;;;;;9.40;8.50;;;;;;;22.71;77.36;96932.69;5056385;28;20174;-70
2021/08/14 01:45:34;;;;;;;10.93;7.90;;;;;;;22.69;77.41;96934.03;5056628;28;20197;-66
2021/08/14 01:47:59;;;;;;;9.50;8.03;;;;;;;22.74;77.29;96932.09;5071088;28;20195;-65
2021/08/14 01:50:25;;;;;;;9.83;7.60;;;;;;;22.67;77.57;96930.84;5075874;28;20571;-65
2021/08/14 01:52:54;;;;;;;8.43;7.50;;;;;;;22.68;77.40;96927.91;5076334;28;20195;-70
2021/08/14 01:55:20;;;;;;;9.17;8.00;;;;;;;22.65;77.45;96933.81;5076257;28;20225;-70
2021/08/14 01:57:45;;;;;;;8.63;7.63;;;;;;;22.65;77.57;96931.16;5076542;28;20459;-70
2021/08/14 02:00:11;;;;;;;8.70;7.90;;;;;;;22.61;77.83;96927.44;5076282;28;20409;-70
2021/08/14 02:02:36;;;;;;;8.57;7.77;;;;;;;22.52;77.96;96923.00;5076036;28;20170;-69
2021/08/14 02:05:03;;;;;;;9.30;8.30;;;;;;;22.56;77.29;96926.75;5059525;28;20214;-66
2021/08/14 02:07:28;;;;;;;9.20;8.20;;;;;;;22.50;78.01;96925.97;5056118;28;20191;-65
2021/08/14 02:09:54;;;;;;;7.87;7.27;;;;;;;22.38;78.99;96921.00;5056372;28;20733;-65
2021/08/14 02:12:19;;;;;;;8.47;7.67;;;;;;;22.44;78.78;96927.91;5056002;28;20687;-70
2021/08/14 02:14:45;;;;;;;7.83;7.13;;;;;;;22.45;78.58;96928.69;5055594;28;20198;-70
2021/08/14 02:17:10;;;;;;;8.40;7.60;;;;;;;22.34;78.83;96925.34;5056391;28;20174;-66
2021/08/14 02:19:35;;;;;;;8.07;7.37;;;;;;;22.35;78.72;96921.59;5070626;28;20181;-65
2021/08/14 02:22:01;;;;;;;7.50;6.80;;;;;;;22.41;78.59;96925.78;5075138;28;20258;-70
2021/08/14 02:24:26;;;;;;;7.63;7.03;;;;;;;22.22;78.37;96927.63;5075064;28;20281;-71
2021/08/14 02:26:52;;;;;;;11.13;7.87;;;;;;;22.26;78.48;96927.88;5075965;28;20191;-70
2021/08/14 02:29:17;;;;;;;8.13;7.40;;;;;;;22.30;77.98;96920.84;5075886;28;20167;-66
2021/08/14 02:31:42;;;;;;;8.33;7.47;;;;;;;22.30;78.10;96929.66;5075973;28;20527;-70
2021/08/14 02:34:08;;;;;;;7.70;7.00;;;;;;;22.27;78.31;96918.72;5061710;28;20203;-70
2021/08/14 02:36:33;;;;;;;8.27;7.40;;;;;;;22.25;78.28;96927.06;5055701;28;20172;-70
2021/08/14 02:38:58;;;;;;;7.77;7.10;;;;;;;22.16;78.32;96926.09;5055779;28;20201;-66
2021/08/14 02:41:24;;;;;;;8.73;7.93;;;;;;;22.12;78.70;96925.06;5055629;28;20233;-70
2021/08/14 02:43:49;;;;;;;8.30;7.50;;;;;;;22.12;78.91;96918.94;5055131;28;20626;-66
2021/08/14 02:46:15;;;;;;;8.77;7.93;;;;;;;22.04;79.04;96923.03;5055907;28;20178;-66
2021/08/14 02:48:40;;;;;;;8.90;8.10;;;;;;;21.89;79.85;96917.81;5075127;28;20238;-65
2021/08/14 02:51:05;;;;;;;8.73;7.83;;;;;;;21.92;79.77;96914.56;5075468;28;20167;-65
2021/08/14 02:53:31;;;;;;;8.60;7.80;;;;;;;21.84;79.99;96911.72;5075062;28;20170;-65
2021/08/14 02:55:56;;;;;;;8.67;7.87;;;;;;;21.78;80.36;96918.97;5072784;28;20183;-70
2021/08/14 02:58:22;;;;;;;7.57;6.97;;;;;;;21.82;80.01;96912.00;5055417;28;20163;-65
2021/08/14 03:00:47;;;;;;;9.13;8.17;;;;;;;21.73;80.37;96919.03;5060977;28;20527;-70
2021/08/14 03:03:13;;;;;;;9.60;8.60;;;;;;;21.67;80.69;96919.34;5074804;28;20242;-65
2021/08/14 03:05:39;;;;;;;8.50;7.70;;;;;;;21.57;81.56;96912.22;5075163;28;20182;-66
2021/08/14 03:08:09;;;;;;;8.37;7.67;;;;;;;21.49;81.97;96916.28;5075052;28;20523;-65
2021/08/14 03:10:36;;;;;;;9.40;8.40;;;;;;;21.49;81.98;96915.47;5057378;28;20422;-66
2021/08/14 03:13:01;;;;;;;10.90;8.63;;;;;;;21.54;82.28;96917.34;5054774;28;20406;-65
2021/08/14 03:15:27;;;;;;;8.23;7.43;;;;;;;21.54;81.97;96917.34;5054926;28;20418;-66
2021/08/14 03:17:54;;;;;;;9.23;8.33;;;;;;;21.53;82.28;96913.84;5053657;28;20172;-70
2021/08/14 03:20:19;;;;;;;9.50;8.23;;;;;;;21.50;82.70;96915.19;5054830;28;20187;-66
2021/08/14 03:22:44;;;;;;;9.83;8.73;;;;;;;21.48;82.79;96911.22;5054578;28;20457;-70
2021/08/14 03:25:10;;;;;;;8.67;7.93;;;;;;;21.43;83.14;96906.72;5069973;28;20206;-66
2021/08/14 03:27:35;;;;;;;8.73;7.90;;;;;;;21.53;82.61;96908.50;5074757;28;20194;-65
2021/08/14 03:30:00;;;;;;;9.27;8.33;;;;;;;21.54;82.71;96909.31;5074622;28;20229;-65
2021/08/14 03:32:26;;;;;;;8.80;8.00;;;;;;;21.52;82.46;96912.28;5074978;28;20166;-70
2021/08/14 03:34:51;;;;;;;9.43;8.50;;;;;;;21.56;82.54;96902.56;5073957;28;20213;-70
2021/08/14 03:37:16;;;;;;;9.20;8.37;;;;;;;21.66;82.61;96905.19;5074557;28;20190;-66
2021/08/14 03:39:42;;;;;;;10.50;9.20;;;;;;;21.68;81.94;96907.56;5060031;28;20661;-64
2021/08/14 03:42:07;;;;;;;9.60;8.70;;;;;;;21.55;82.69;96909.03;5054599;28;20672;-70
2021/08/14 03:44:33;;;;;;;9.70;8.90;;;;;;;21.64;81.91;96904.66;5053956;28;20317;-65
2021/08/14 03:46:58;;;;;;;9.60;8.60;;;;;;;21.50;82.38;96899.16;5060578;28;20543;-66
2021/08/14 03:49:24;;;;;;;9.33;8.30;;;;;;;21.67;81.76;96897.97;5074275;28;20648;-64
2021/08/14 03:51:49;;;;;;;9.27;8.50;;;;;;;21.71;81.67;96904.31;5074340;28;20680;-65
2021/08/14 03:54:14;;;;;;;8.90;8.10;;;;;;;21.59;82.79;96904.72;5073136;28;20191;-70
2021/08/14 03:56:40;;;;;;;8.80;7.97;;;;;;;21.70;81.90;96902.72;5068310;28;20180;-70
2021/08/14 03:59:05;;;;;;;9.00;8.10;;;;;;;21.63;81.78;96904.94;5054204;28;20186;-70
2021/08/14 04:01:30;;;;;;;8.83;8.13;;;;;;;21.69;81.42;96901.94;5054005;28;20175;-70
2021/08/14 04:03:56;;;;;;;9.97;8.83;;;;;;;21.65;81.71;96897.44;5053662;28;20193;-70
2021/08/14 04:06:21;;;;;;;10.20;8.13;;;;;;;21.71;81.35;96902.44;5053803;28;20514;-66
2021/08/14 04:08:46;;;;;;;9.20;8.30;;;;;;;21.67;81.54;96900.63;5054047;28;20587;-66
2021/08/14 04:11:12;;;;;;;8.50;7.70;;;;;;;21.64;81.65;96901.97;5056213;28;20222;-66
2021/08/14 04:13:37;;;;;;;9.27;8.47;;;;;;;21.64;81.66;96899.31;5053828;28;20175;-66
2021/08/14 04:16:03;;;;;;;8.20;7.40;;;;;;;21.63;81.53;96903.06;5053701;28;20688;-70
2021/08/14 04:18:28;;;;;;;9.87;8.20;;;;;;;21.54;81.88;96899.41;5053865;28;20724;-66
2021/08/14 04:20:54;;;;;;;10.03;8.27;;;;;;;21.55;81.76;96898.31;5053970;28;20211;-70
2021/08/14 04:23:20;;;;;;;10.17;8.70;;;;;;;21.52;81.96;96898.91;5057910;28;20253;-66
2021/08/14 04:25:45;;;;;;;9.13;8.33;;;;;;;21.58;81.67;96900.44;5073578;28;21015;-70
2021/08/14 04:28:10;;;;;;;9.13;8.33;;;;;;;21.48;82.22;96897.84;5073579;28;20194;-65
2021/08/14 04:30:36;;;;;;;9.90;8.57;;;;;;;21.52;82.09;96899.66;5073623;28;20159;-66
2021/08/14 04:33:02;;;;;;;8.53;7.77;;;;;;;21.57;81.92;96898.03;5073318;28;20249;-65
2021/08/14 04:35:27;;;;;;;8.90;8.00;;;;;;;21.54;82.12;96898.59;5073435;28;20182;-65
2021/08/14 04:37:53;;;;;;;10.83;8.07;;;;;;;21.46;82.37;96908.03;5070158;28;20424;-66
2021/08/14 04:40:18;;;;;;;8.93;8.13;;;;;;;21.41;82.66;96897.38;5053454;28;20238;-66
2021/08/14 04:42:44;;;;;;;9.23;8.33;;;;;;;21.38;83.09;96903.28;5053038;28;20234;-70
2021/08/14 04:45:10;;;;;;;9.40;8.50;;;;;;;21.39;83.03;96905.69;5053123;28;20188;-65
2021/08/14 04:47:36;;;;;;;9.00;8.23;;;;;;;21.45;82.60;96901.88;5064857;28;20537;-70
2021/08/14 04:50:03;;;;;;;9.00;8.20;;;;;;;21.46;82.73;96900.00;5073551;28;20546;-70
2021/08/14 04:52:28;;;;;;;9.53;8.63;;;;;;;21.41;82.81;96908.09;5072863;28;20173;-66
2021/08/14 04:54:54;;;;;;;8.27;7.57;;;;;;;21.37;83.09;96912.38;5073080;28;20547;-66
2021/08/14 04:57:19;;;;;;;9.00;8.10;;;;;;;21.35;83.69;96909.19;5073560;28;20220;-66
2021/08/14 04:59:45;;;;;;;10.10;9.10;;;;;;;21.33;83.80;96904.13;5073271;28;20169;-70
2021/08/14 05:02:10;;;;;;;8.93;8.10;;;;;;;21.37;83.75;96904.38;5073364;28;20175;-70
2021/08/14 05:04:36;;;;;;;9.30;8.40;;;;;;;21.35;84.02;96901.97;5072882;28;20194;-66
2021/08/14 05:07:01;;;;;;;10.07;8.93;;;;;;;21.33;84.37;96912.16;5072457;28;20730;-64
2021/08/14 05:09:27;;;;;;;9.40;8.60;;;;;;;21.41;84.17;96910.75;5063620;28;20175;-68
2021/08/14 05:11:53;;;;;;;10.07;9.13;;;;;;;21.41;84.45;96913.44;5057836;28;20175;-70
2021/08/14 05:14:19;;;;;;;10.27;9.27;;;;;;;21.35;85.42;96915.34;5052852;28;20195;-70
2021/08/14 05:16:44;;;;;;;10.33;9.23;;;;;;;21.30;85.46;96912.72;5053205;28;20221;-65
2021/08/14 05:19:10;;;;;;;10.47;9.53;;;;;;;21.34;84.21;96912.97;5053179;28;20398;-65
2021/08/14 05:21:35;;;;;;;10.47;9.50;;;;;;;21.53;84.04;96916.53;5053217;28;20176;-70
2021/08/14 05:24:02;;;;;;;9.23;8.33;;;;;;;21.55;84.68;96917.06;5066734;28;20658;-70
2021/08/14 05:26:28;;;;;;;9.23;8.43;;;;;;;21.67;84.64;96914.78;5073179;28;20257;-65
2021/08/14 05:28:54;;;;;;;9.80;8.80;;;;;;;21.79;84.49;96912.56;5073244;28;20534;-70
2021/08/14 05:31:19;;;;;;;8.67;7.87;;;;;;;21.91;84.30;96915.66;5073061;28;20626;-65
2021/08/14 05:33:45;;;;;;;9.40;8.53;;;;;;;21.93;84.75;96918.03;5059175;28;20284;-66
2021/08/14 05:36:10;;;;;;;9.93;8.93;;;;;;;21.94;85.11;96909.72;5052813;28;20221;-65
2021/08/14 05:38:36;;;;;;;9.30;8.30;;;;;;;21.97;85.33;96922.56;5052984;28;20171;-65
2021/08/14 05:41:02;;;;;;;9.60;8.80;;;;;;;22.00;85.48;96916.63;5052784;28;20191;-66
2021/08/14 05:43:27;;;;;;;9.90;9.10;;;;;;;22.06;85.49;96923.53;5051343;28;20159;-66
2021/08/14 05:45:53;;;;;;;8.50;7.80;;;;;;;22.12;85.28;96921.59;5052806;28;20778;-70
2021/08/14 05:48:19;;;;;;;8.10;7.40;;;;;;;22.16;85.37;96926.09;5069429;28;20205;-64
2021/08/14 05:50:45;;;;;;;9.40;8.50;;;;;;;22.21;85.33;96931.38;5072901;28;20171;-70
2021/08/14 05:53:10;;;;;;;9.07;8.27;;;;;;;22.28;85.28;96923.78;5071113;28;20474;-70
2021/08/14 05:55:36;;;;;;;9.87;8.80;;;;;;;22.37;85.18;96926.66;5072599;28;20919;-70
2021/08/14 05:58:01;;;;;;;9.17;8.33;;;;;;;22.38;85.33;96921.00;5075444;28;20245;-70
2021/08/14 06:00:27;;;;;;;8.57;7.87;;;;;;;22.42;85.12;96919.38;5076394;28;20216;-65
2021/08/14 06:02:52;;;;;;;8.27;7.57;;;;;;;22.51;85.18;96924.88;5065467;28;20608;-65
2021/08/14 06:05:17;;;;;;;10.33;9.30;;;;;;;22.56;85.04;96930.19;5061216;28;20190;-66
2021/08/14 06:07:43;;;;;;;10.40;9.50;;;;;;;22.44;85.99;96927.09;5076138;28;20191;-69
2021/08/14 06:10:09;;;;;;;9.40;8.50;;;;;;;22.49;85.83;96932.41;5076170;28;20170;-65
2021/08/14 06:12:34;;;;;;;9.37;8.57;;;;;;;22.64;85.50;96926.06;5076026;28;20179;-68
2021/08/14 06:15:00;;;;;;;10.30;9.30;;;;;;;22.72;85.47;96928.13;5075936;28;20931;-70
2021/08/14 06:17:25;;;;;;;8.90;8.10;;;;;;;22.80;84.78;96928.28;5071705;28;20537;-66
2021/08/14 06:19:51;;;;;;;9.40;8.50;;;;;;;22.84;81.19;96933.84;5056103;28;20179;-65
2021/08/14 06:22:16;;;;;;;9.00;8.27;;;;;;;22.81;78.85;96932.53;5054877;28;20171;-70
2021/08/14 06:24:42;;;;;;;8.50;7.70;;;;;;;22.87;78.59;96931.38;5055315;28;20199;-65
2021/08/14 06:27:07;;;;;;;7.53;6.83;;;;;;;23.00;79.05;96919.13;5055865;28;20554;-65
2021/08/14 06:29:33;;;;;;;8.43;7.67;;;;;;;23.17;79.50;96924.78;5055834;28;20217;-65
2021/08/14 06:31:59;;;;;;;14.70;8.33;;;;;;;23.28;80.02;96923.56;5057663;28;20170;-65
2021/08/14 06:34:24;;;;;;;8.10;7.40;;;;;;;23.37;80.13;96929.88;5067271;28;20248;-65
2021/08/14 06:36:49;;;;;;;8.93;8.13;;;;;;;23.44;79.73;96920.34;5075684;28;20212;-70
2021/08/14 06:39:15;;;;;;;10.13;9.00;;;;;;;23.45;80.09;96929.19;5075782;28;20167;-70
2021/08/14 06:41:40;;;;;;;8.53;7.73;;;;;;;23.44;79.12;96925.72;5075624;28;20258;-70
2021/08/14 06:44:05;;;;;;;8.73;7.80;;;;;;;23.54;79.16;96924.75;5073862;28;20191;-66
2021/08/14 06:46:31;;;;;;;8.90;8.20;;;;;;;23.64;79.17;96923.78;5074199;28;20637;-66
2021/08/14 06:48:59;;;;;;;8.93;8.03;;;;;;;23.69;80.06;96923.69;5074907;28;20175;-70
2021/08/14 06:51:24;;;;;;;10.30;9.40;;;;;;;23.71;80.26;96922.31;5075696;28;20173;-70
2021/08/14 06:53:50;;;;;;;8.63;7.90;;;;;;;23.75;80.33;96919.84;5074914;28;20413;-70
2021/08/14 06:56:15;;;;;;;8.53;7.87;;;;;;;23.80;80.61;96925.13;5075403;28;20170;-66
2021/08/14 06:58:40;;;;;;;9.83;9.00;;;;;;;23.86;80.45;96921.25;5075395;28;20576;-66
2021/08/14 07:01:06;;;;;;;8.43;7.73;;;;;;;23.85;80.10;96925.03;5075276;28;20198;-71
2021/08/14 07:03:32;;;;;;;9.70;8.60;;;;;;;23.84;79.65;96929.63;5061943;28;20175;-70
2021/08/14 07:05:58;;;;;;;9.57;8.73;;;;;;;23.88;79.56;96930.59;5055235;28;20229;-65
2021/08/14 07:08:23;;;;;;;8.93;8.13;;;;;;;23.96;78.95;96923.75;5054523;28;20446;-65
2021/08/14 07:10:48;;;;;;;9.57;8.63;;;;;;;23.88;78.46;96929.81;5055105;28;20622;-65
2021/08/14 07:13:14;;;;;;;8.93;8.03;;;;;;;23.88;77.56;96924.44;5054698;28;20177;-70
2021/08/14 07:15:39;;;;;;;9.30;8.37;;;;;;;23.86;77.70;96924.72;5055042;28;20673;-70
2021/08/14 07:18:04;;;;;;;9.67;8.70;;;;;;;23.98;77.48;96925.06;5065620;28;20274;-70
2021/08/14 07:20:30;;;;;;;9.70;8.77;;;;;;;24.12;77.27;96927.75;5075064;28;20163;-70
2021/08/14 07:22:55;;;;;;;8.93;8.10;;;;;;;24.23;76.71;96923.78;5074615;28;20601;-66
2021/08/14 07:25:21;;;;;;;9.60;8.60;;;;;;;24.25;77.26;96917.03;5074548;28;20202;-70
2021/08/14 07:27:46;;;;;;;9.63;7.80;;;;;;;24.33;77.45;96931.66;5074711;28;20195;-66
2021/08/14 07:30:12;;;;;;;9.07;8.27;;;;;;;24.39;78.43;96911.66;5074762;28;20583;-70
2021/08/14 07:32:38;;;;;;;9.07;8.27;;;;;;;24.38;78.24;96927.00;5064646;28;20171;-66
2021/08/14 07:35:03;;;;;;;11.17;9.33;;;;;;;24.46;78.45;96915.53;5054666;28;20187;-65
2021/08/14 07:37:29;;;;;;;10.40;9.00;;;;;;;24.53;77.74;96920.50;5054698;28;20636;-70
2021/08/14 07:39:54;;;;;;;9.60;8.63;;;;;;;24.61;77.92;96917.09;5054426;28;20251;-66
2021/08/14 07:42:20;;;;;;;8.63;8.03;;;;;;;24.66;78.39;96917.00;5074250;28;20167;-61
2021/08/14 07:44:45;;;;;;;9.13;8.40;;;;;;;24.70;78.03;96915.31;5073989;28;20186;-61
2021/08/14 07:47:11;;;;;;;10.77;9.80;;;;;;;24.66;78.07;96913.53;5070079;28;20222;-65
2021/08/14 07:49:36;;;;;;;10.33;9.43;;;;;;;24.65;77.66;96915.41;5066929;28;20175;-62
2021/08/14 07:52:01;;;;;;;13.53;9.40;;;;;;;24.43;77.58;96913.44;5071166;28;20178;-63
2021/08/14 07:54:28;;;;;;;9.90;8.90;;;;;;;24.59;77.31;96915.81;5070860;28;20201;-62
2021/08/14 07:56:55;;;;;;;9.30;8.40;;;;;;;24.74;78.02;96910.16;5071049;28;20202;-62
2021/08/14 07:59:20;;;;;;;10.07;9.00;;;;;;;24.85;77.55;96917.69;5072733;28;20411;-60
2021/08/14 08:01:46;;;;;;;10.00;9.07;;;;;;;24.93;77.08;96910.81;5068483;28;20465;-58
2021/08/14 08:04:11;;;;;;;9.00;8.20;;;;;;;24.98;76.72;96911.50;5064874;28;20527;-59
2021/08/14 08:06:37;;;;;;;9.17;8.37;;;;;;;25.04;76.00;96909.44;5063753;28;20244;-64
2021/08/14 08:09:02;;;;;;;9.20;8.40;;;;;;;25.05;74.95;96911.06;5064893;28;20178;-65
2021/08/14 08:11:27;;;;;;;12.63;9.13;;;;;;;24.79;75.91;96910.03;5062004;28;20181;-64
2021/08/14 08:13:53;;;;;;;9.20;8.30;;;;;;;24.91;73.03;96907.63;5061479;28;20179;-59
2021/08/14 08:16:18;;;;;;;8.63;7.83;;;;;;;24.93;73.13;96902.75;5062279;28;20179;-59
2021/08/14 08:18:44;;;;;;;8.23;7.50;;;;;;;25.10;73.59;96902.88;5068148;28;20174;-65
2021/08/14 08:21:09;;;;;;;9.03;8.27;;;;;;;25.20;72.92;96906.09;5063788;28;20209;-59
2021/08/14 08:23:34;;;;;;;8.20;7.20;;;;;;;25.20;70.82;96902.66;5061644;28;20499;-59
2021/08/14 08:26:00;;;;;;;8.13;7.33;;;;;;;25.02;70.05;96906.28;5061664;28;20529;-59
2021/08/14 08:28:25;;;;;;;7.70;7.00;;;;;;;25.11;69.96;96899.09;5061436;28;20621;-64
2021/08/14 08:30:51;;;;;;;6.90;6.23;;;;;;;25.23;67.93;96896.63;5064878;28;20178;-64
2021/08/14 08:33:16;;;;;;;8.90;5.80;;;;;;;25.47;63.49;96896.38;5057978;28;20177;-59
2021/08/14 08:35:42;;;;;;;8.33;6.40;;;;;;;25.41;63.42;96899.19;5060618;28;20685;-63
2021/08/14 08:38:07;;;;;;;7.50;6.80;;;;;;;25.60;63.52;96888.19;5061259;28;20251;-64
2021/08/14 08:40:37;;;;;;;7.70;6.33;;;;;;;25.70;62.17;96887.94;5060585;28;20179;-60
2021/08/14 08:43:02;;;;;;;7.10;6.60;;;;;;;25.77;63.77;96893.69;5056371;28;20174;-61
2021/08/14 08:45:28;;;;;;;7.77;6.97;;;;;;;25.87;63.21;96889.94;5057875;28;20438;-60
2021/08/14 08:47:56;;;;;;;9.10;7.60;;;;;;;26.14;62.88;96889.78;5064844;28;20199;-60
2021/08/14 08:50:22;;;;;;;7.83;7.13;;;;;;;26.10;63.78;96884.22;5057700;28;20176;-59
2021/08/14 08:52:47;;;;;;;6.30;5.70;;;;;;;26.26;61.73;96882.69;5058014;28;20465;-64
2021/08/14 08:55:14;;;;;;;8.10;7.40;;;;;;;26.45;63.68;96885.09;5060982;28;20469;-60
2021/08/14 08:57:40;;;;;;;7.23;6.63;;;;;;;26.57;64.44;96877.19;5061006;28;20911;-64
2021/08/14 09:00:07;;;;;;;7.33;6.83;;;;;;;26.62;63.52;96878.94;5057392;28;20417;-64
2021/08/14 09:02:35;;;;;;;7.70;7.10;;;;;;;26.69;62.67;96882.00;5057488;28;20176;-58
2021/08/14 09:05:11;;;;;;;7.40;6.60;;;;;;;26.69;61.95;96882.00;5058586;28;20990;-60
2021/08/14 09:07:37;;;;;;;10.73;6.43;;;;;;;26.44;62.44;96884.31;5060828;28;20962;-59
2021/08/14 09:10:04;;;;;;;8.07;7.37;;;;;;;26.61;64.19;96880.06;5056963;28;20418;-64
2021/08/14 09:12:32;;;;;;;8.03;7.30;;;;;;;26.72;64.00;96884.06;5056967;28;20425;-60
2021/08/14 09:14:57;;;;;;;7.60;7.00;;;;;;;26.97;64.12;96886.78;5059089;28;20438;-64
2021/08/14 09:17:27;;;;;;;7.43;6.83;;;;;;;27.17;64.41;96879.97;5060665;28;20470;-61
2021/08/14 09:20:19;;;;;;;7.70;7.00;;;;;;;27.31;65.09;96875.19;5059431;28;20248;-64
2021/08/14 09:23:07;;;;;;;7.43;6.83;;;;;;;27.43;65.04;96881.53;5057681;28;20461;-64
2021/08/14 09:25:56;;;;;;;8.70;7.90;;;;;;;27.58;65.05;96880.25;5063473;28;20453;-65
2021/08/14 09:28:32;;;;;;;7.27;6.77;;;;;;;27.66;63.15;96873.22;5069531;28;20468;-59
2021/08/14 09:31:00;;;;;;;8.03;7.23;;;;;;;27.67;60.95;96872.91;5072960;28;20421;-58
2021/08/14 09:33:28;;;;;;;7.57;6.87;;;;;;;27.55;59.69;96877.38;5076116;28;20462;-65
2021/08/14 09:35:58;;;;;;;8.83;7.93;;;;;;;27.21;60.79;96879.00;5076910;28;20423;-65
2021/08/14 09:38:37;;;;;;;11.27;6.60;;;;;;;27.31;60.24;96867.91;5076653;28;20435;-59
2021/08/14 09:41:23;;;;;;;7.93;7.33;;;;;;;27.46;60.86;96866.63;5056884;28;20409;-59
2021/08/14 09:43:52;;;;;;;8.53;7.53;;;;;;;27.45;61.29;96864.25;5074038;28;20432;-65
2021/08/14 09:46:17;;;;;;;8.80;8.00;;;;;;;27.48;60.28;96864.38;5069617;28;20417;-63
2021/08/14 09:48:53;;;;;;;8.30;7.50;;;;;;;27.64;63.04;96854.66;5075662;28;20459;-66
2021/08/14 09:51:26;;;;;;;7.50;6.90;;;;;;;27.89;63.67;96856.47;5076938;28;20629;-62
2021/08/14 09:53:56;;;;;;;9.07;8.20;;;;;;;27.96;61.05;96856.78;5076085;28;20938;-62
2021/08/14 09:56:27;;;;;;;8.63;7.87;;;;;;;28.16;60.82;96850.66;5076550;28;20450;-61
2021/08/14 09:58:53;;;;;;;8.37;7.67;;;;;;;28.24;59.89;96855.22;5076459;28;20925;-63
2021/08/14 10:01:19;;;;;;;7.90;7.23;;;;;;;28.32;59.93;96851.69;5076194;28;20907;-63
2021/08/14 10:03:46;;;;;;;8.57;7.60;;;;;;;28.49;62.82;96847.28;5072390;28;20922;-65
2021/08/14 10:06:13;;;;;;;9.00;8.10;;;;;;;28.27;59.20;96846.47;5076230;28;20416;-65
2021/08/14 10:08:40;;;;;;;8.50;7.70;;;;;;;28.48;61.12;96838.38;5076216;28;20967;-63
2021/08/14 10:11:10;;;;;;;8.33;7.50;;;;;;;28.53;59.19;96835.50;5067877;28;20421;-62
2021/08/14 10:13:38;;;;;;;8.87;8.07;;;;;;;28.58;58.99;96834.50;5055861;28;20410;-63
2021/08/14 10:16:04;;;;;;;8.50;7.73;;;;;;;28.80;60.62;96829.59;5055893;28;20480;-63
2021/08/14 10:18:29;;;;;;;7.27;6.70;;;;;;;29.01;61.36;96824.13;5055945;28;20409;-62
2021/08/14 10:20:55;;;;;;;8.67;7.97;;;;;;;29.13;60.39;96816.13;5056333;28;20172;-63
2021/08/14 10:23:23;;;;;;;8.63;7.83;;;;;;;29.16;59.89;96821.66;5055616;28;20163;-63
2021/08/14 10:26:06;;;;;;;8.73;7.97;;;;;;;29.26;58.96;96823.16;5062828;28;20190;-63
2021/08/14 10:28:43;;;;;;;8.60;7.80;;;;;;;29.27;59.68;96811.19;5075824;28;20437;-62
2021/08/14 10:31:09;;;;;;;8.30;7.50;;;;;;;29.14;58.42;96812.28;5075812;28;20401;-64
2021/08/14 10:33:37;;;;;;;7.90;7.30;;;;;;;29.31;57.76;96809.41;5075696;28;20412;-66
2021/08/14 10:36:18;;;;;;;7.43;6.83;;;;;;;29.07;58.42;96812.78;5075880;28;20213;-69
2021/08/14 10:38:45;;;;;;;8.37;7.57;;;;;;;29.33;59.89;96812.56;5075644;28;20405;-70
2021/08/14 10:41:12;;;;;;;8.77;7.90;;;;;;;29.56;57.51;96808.31;5062913;28;20471;-67
2021/08/14 10:43:52;;;;;;;8.17;7.57;;;;;;;29.74;57.43;96803.53;5054145;28;20403;-68
2021/08/14 10:46:37;;;;;;;9.60;8.13;;;;;;;29.79;54.55;96795.97;5056148;28;20410;-65
2021/08/14 10:49:05;;;;;;;7.77;7.17;;;;;;;29.86;55.18;96795.41;5075470;28;20416;-67
2021/08/14 10:51:51;;;;;;;9.10;8.40;;;;;;;29.98;56.63;96798.13;5075737;28;20477;-69
2021/08/14 10:54:29;;;;;;;16.23;8.03;;;;;;;29.92;57.05;96794.84;5075113;28;20420;-69
2021/08/14 10:56:58;;;;;;;9.87;8.87;;;;;;;30.09;56.67;96796.53;5055473;28;20493;-69
2021/08/14 10:59:53;;;;;;;9.40;7.67;;;;;;;30.25;58.75;96784.69;5055437;28;20416;-68
2021/08/14 11:02:18;;;;;;;9.67;7.40;;;;;;;30.37;58.61;96786.56;5054534;28;20513;-69
2021/08/14 11:05:00;;;;;;;9.30;8.40;;;;;;;30.47;58.75;96783.41;5054694;28;20513;-64
2021/08/14 11:07:25;;;;;;;7.80;7.03;;;;;;;30.57;58.68;96779.41;5055199;28;20617;-64
2021/08/14 11:09:53;;;;;;;7.93;7.10;;;;;;;30.64;57.95;96772.25;5060342;28;20519;-71
2021/08/14 11:12:40;;;;;;;8.30;7.60;;;;;;;30.74;57.24;96769.06;5074939;28;20167;-64
2021/08/14 11:15:22;;;;;;;7.47;6.90;;;;;;;30.79;56.98;96765.31;5074790;28;20421;-70
2021/08/14 11:17:51;;;;;;;8.33;7.63;;;;;;;30.88;56.86;96763.28;5075096;28;20475;-65
2021/08/14 11:20:19;;;;;;;8.97;8.17;;;;;;;30.82;55.24;96761.97;5074914;28;20406;-65
2021/08/14 11:22:45;;;;;;;8.87;7.93;;;;;;;30.79;57.66;96754.44;5074415;28;20403;-70
2021/08/14 11:25:37;;;;;;;7.30;6.80;;;;;;;30.89;57.62;96767.56;5064146;28;20944;-65
2021/08/14 11:28:04;;;;;;;8.30;7.50;;;;;;;30.81;53.82;96754.94;5058587;28;20943;-64
2021/08/14 11:30:34;;;;;;;8.83;7.53;;;;;;;30.93;55.30;96754.88;5050377;28;20417;-63